createdAt,value
2019-06-07T00:00:40.300Z,59.38
2019-06-07T00:05:41.710Z,59.65
2019-06-07T00:10:43.784Z,59.67
2019-06-07T00:15:45.944Z,60.03
2019-06-07T00:20:48.034Z,60.17
2019-06-07T00:25:50.114Z,60.26
2019-06-07T00:30:52.816Z,60.56
2019-06-07T00:35:55.099Z,60.57
2019-06-07T00:40:57.147Z,60.86
2019-06-07T00:45:59.170Z,61.19
2019-06-07T00:51:01.206Z,61.08
2019-06-07T00:56:03.247Z,60.99
2019-06-07T01:01:05.447Z,61.30
2019-06-07T01:06:07.549Z,61.42
2019-06-07T01:11:09.632Z,61.44
2019-06-07T01:16:11.771Z,61.65
2019-06-07T01:21:15.905Z,61.61
2019-06-07T01:26:20.530Z,61.59
2019-06-07T01:31:24.850Z,61.60
2019-06-07T01:36:29.564Z,61.64
2019-06-07T01:41:30.711Z,61.71
2019-06-07T01:46:33.212Z,61.58
2019-06-07T01:51:35.584Z,61.63
2019-06-07T01:56:37.671Z,61.58
2019-06-07T02:01:39.718Z,61.67
2019-06-07T02:06:41.776Z,61.57
2019-06-07T02:11:43.855Z,61.49
2019-06-07T02:16:45.911Z,61.46
2019-06-07T02:21:47.970Z,61.81
2019-06-07T02:26:49.999Z,61.71
2019-06-07T02:31:52.037Z,61.75
2019-06-07T02:36:54.434Z,61.73
2019-06-07T02:41:56.846Z,61.69
2019-06-07T02:46:59.014Z,61.52
2019-06-07T02:52:01.361Z,61.53
2019-06-07T02:57:03.461Z,61.44
2019-06-07T03:02:05.528Z,61.47
2019-06-07T03:07:10.790Z,61.67
2019-06-07T03:12:14.224Z,61.45
2019-06-07T03:17:41.724Z,61.69
2019-06-07T03:22:43.759Z,61.60
2019-06-07T03:27:49.944Z,61.46
2019-06-07T03:32:52.105Z,61.59
2019-06-07T03:37:54.507Z,61.50
2019-06-07T03:42:56.604Z,61.66
2019-06-07T03:47:58.672Z,61.39
2019-06-07T03:53:00.709Z,61.38
2019-06-07T03:58:31.516Z,61.72
2019-06-07T04:03:06.669Z,61.64
2019-06-07T04:08:11.092Z,61.69
2019-06-07T04:13:13.138Z,61.67
2019-06-07T04:18:15.268Z,61.43
2019-06-07T04:23:27.855Z,61.46
2019-06-07T04:28:21.380Z,61.23
2019-06-07T04:33:24.193Z,61.23
2019-06-07T04:38:26.556Z,61.35
2019-06-07T04:43:31.464Z,61.22
2019-06-07T04:48:41.377Z,61.03
2019-06-07T04:53:43.078Z,61.77
2019-06-07T04:58:44.525Z,61.61
2019-06-07T05:03:46.558Z,61.25
2019-06-07T05:08:48.621Z,61.13
2019-06-07T05:13:50.677Z,60.85
2019-06-07T05:18:52.709Z,61.23
2019-06-07T05:24:06.602Z,60.99
2019-06-07T05:28:58.813Z,61.02
2019-06-07T05:34:00.864Z,61.06
2019-06-07T05:39:04.884Z,60.82
2019-06-07T05:44:12.839Z,60.66
2019-06-07T05:49:10.936Z,60.31
2019-06-07T05:54:12.994Z,60.08
2019-06-07T05:59:15.071Z,59.91
2019-06-07T06:04:19.642Z,58.88
2019-06-07T06:09:21.666Z,59.06
2019-06-07T06:14:23.704Z,58.43
2019-06-07T06:19:25.775Z,58.24
2019-06-07T06:24:28.868Z,57.76
2019-06-07T06:29:30.902Z,57.03
2019-06-07T06:34:40.158Z,55.62
2019-06-07T06:39:42.039Z,55.40
2019-06-07T06:44:46.411Z,56.10
2019-06-07T06:49:49.993Z,56.02
2019-06-07T06:55:00.156Z,56.15
2019-06-07T06:59:57.175Z,54.27
2019-06-07T07:04:59.235Z,52.83
2019-06-07T07:10:03.160Z,52.18
2019-06-07T07:15:06.664Z,52.03
2019-06-07T07:20:08.810Z,51.37
2019-06-07T07:25:11.192Z,51.18
2019-06-07T07:30:36.066Z,50.28
2019-06-07T07:35:17.986Z,49.32
2019-06-07T07:40:56.178Z,48.95
2019-06-07T07:45:23.987Z,49.59
2019-06-07T07:50:26.086Z,49.34
2019-06-07T07:55:28.221Z,48.06
2019-06-07T08:00:52.571Z,47.08
2019-06-07T08:05:42.921Z,47.33
2019-06-07T08:10:38.904Z,47.32
2019-06-07T08:15:40.958Z,46.90
2019-06-07T08:21:04.826Z,46.49
2019-06-07T08:25:47.183Z,47.11
2019-06-07T08:30:55.017Z,46.29
2019-06-07T08:41:10.734Z,44.74
2019-06-07T08:46:06.841Z,44.63
2019-06-07T08:51:08.184Z,45.39
2019-06-07T08:56:10.906Z,45.40
2019-06-07T09:01:13.103Z,45.65
2019-06-07T09:07:01.260Z,45.66
2019-06-07T09:11:19.104Z,45.17
2019-06-07T09:16:21.151Z,45.31
2019-06-07T09:21:23.237Z,45.35
2019-06-07T09:26:25.581Z,45.50
2019-06-07T09:31:51.073Z,46.12
2019-06-07T09:36:31.562Z,45.80
2019-06-07T09:41:46.957Z,45.79
2019-06-07T09:46:37.668Z,45.87
2019-06-07T09:51:39.797Z,46.16
2019-06-07T09:56:41.843Z,46.50
2019-06-07T10:01:43.891Z,46.17
2019-06-07T10:06:46.144Z,46.15
2019-06-07T10:11:48.334Z,46.59
2019-06-07T10:16:50.397Z,46.66
2019-06-07T10:21:52.431Z,46.96
2019-06-07T10:26:54.490Z,46.36
2019-06-07T10:31:56.622Z,46.26
2019-06-07T10:36:58.758Z,45.98
2019-06-07T10:42:00.993Z,45.89
2019-06-07T10:47:04.008Z,45.81
2019-06-07T10:52:07.998Z,45.42
2019-06-07T10:57:12.889Z,45.83
2019-06-07T11:02:14.282Z,45.48
2019-06-07T11:07:16.462Z,45.86
2019-06-07T11:12:19.270Z,46.02
2019-06-07T11:17:21.282Z,45.77
2019-06-07T11:22:26.085Z,45.49
2019-06-07T11:27:28.157Z,45.32
2019-06-07T11:32:30.731Z,45.99
2019-06-07T11:37:33.035Z,45.94
2019-06-07T11:42:35.127Z,45.93
2019-06-07T11:47:37.547Z,45.72
2019-06-07T11:52:39.574Z,44.88
2019-06-07T11:57:41.645Z,44.69
2019-06-07T12:02:43.707Z,44.43
2019-06-07T12:07:48.779Z,43.75
2019-06-07T12:12:50.809Z,43.20
2019-06-07T12:17:52.866Z,43.70
2019-06-07T12:22:54.904Z,43.77
2019-06-07T12:27:58.296Z,44.36
2019-06-07T12:33:00.342Z,44.53
2019-06-07T12:38:02.478Z,45.09
2019-06-07T12:43:04.527Z,44.73
2019-06-07T12:48:06.884Z,45.18
2019-06-07T12:53:09.316Z,44.45
2019-06-07T12:58:11.342Z,44.76
2019-06-07T13:03:14.231Z,44.89
2019-06-07T13:08:17.613Z,44.70
2019-06-07T13:13:20.986Z,44.85
2019-06-07T13:18:25.198Z,44.67
2019-06-07T13:23:28.900Z,45.21
2019-06-07T13:28:31.894Z,45.37
2019-06-07T13:33:38.670Z,45.53
2019-06-07T13:38:38.215Z,45.17
2019-06-07T13:43:40.377Z,45.20
2019-06-07T13:48:42.485Z,45.46
2019-06-07T13:53:44.580Z,45.69
2019-06-07T13:58:48.638Z,45.94
2019-06-07T14:03:50.830Z,45.71
2019-06-07T14:08:54.787Z,45.74
2019-06-07T14:13:58.734Z,45.85
2019-06-07T14:19:00.834Z,46.15
2019-06-07T14:24:03.103Z,46.13
2019-06-07T14:29:05.196Z,46.47
2019-06-07T14:34:07.341Z,46.52
2019-06-07T14:39:09.477Z,46.94
2019-06-07T14:44:11.534Z,46.78
2019-06-07T14:49:13.737Z,46.58
2019-06-07T14:54:15.902Z,46.59
2019-06-07T14:59:18.382Z,46.79
2019-06-07T15:04:20.448Z,46.94
2019-06-07T15:09:22.544Z,47.03
2019-06-07T15:14:24.830Z,47.22
2019-06-07T15:19:29.055Z,47.38
2019-06-07T15:24:35.354Z,47.61
2019-06-07T15:29:35.973Z,47.67
2019-06-07T15:34:38.456Z,47.71
2019-06-07T15:39:40.846Z,47.95
2019-06-07T15:44:42.887Z,47.89
2019-06-07T15:49:46.304Z,48.05
2019-06-07T15:54:48.393Z,48.48
2019-06-07T15:59:50.495Z,48.85
2019-06-07T16:04:57.186Z,48.79
2019-06-07T16:09:59.376Z,48.88
2019-06-07T16:15:01.687Z,49.13
2019-06-07T16:20:05.298Z,49.01
2019-06-07T16:25:09.565Z,48.92
2019-06-07T16:30:12.493Z,49.17
2019-06-07T16:35:23.371Z,48.09
2019-06-07T16:40:55.776Z,48.53
2019-06-07T16:46:03.370Z,48.83
2019-06-07T16:51:07.905Z,49.04
2019-06-07T16:56:10.112Z,48.93
2019-06-07T17:01:12.386Z,49.22
2019-06-07T17:06:17.482Z,49.23
2019-06-07T17:11:19.595Z,49.24
2019-06-07T17:16:24.405Z,49.01
2019-06-07T17:21:26.496Z,48.70
2019-06-07T17:26:28.607Z,48.51
2019-06-07T17:31:30.693Z,48.57
2019-06-07T17:36:32.722Z,47.79
2019-06-07T17:41:50.674Z,47.55
2019-06-07T17:46:39.367Z,46.70
2019-06-07T17:51:41.768Z,46.61
2019-06-07T17:56:44.559Z,46.48
2019-06-07T18:02:06.747Z,46.58
2019-06-07T18:06:53.624Z,46.69
2019-06-07T18:11:56.310Z,46.78
2019-06-07T18:16:59.019Z,46.79
2019-06-07T18:22:04.124Z,47.01
2019-06-07T18:27:07.221Z,46.98
2019-06-07T18:32:12.660Z,46.96
2019-06-07T18:37:13.484Z,47.05
2019-06-07T18:42:15.527Z,47.21
2019-06-07T18:47:17.590Z,47.40
2019-06-07T18:52:24.473Z,47.54
2019-06-07T18:57:26.527Z,47.76
2019-06-07T19:02:28.633Z,48.06
2019-06-07T19:07:30.711Z,48.23
2019-06-07T19:12:34.348Z,48.46
2019-06-07T19:17:39.423Z,48.84
2019-06-07T19:22:41.581Z,49.15
2019-06-07T19:27:43.682Z,49.31
2019-06-07T19:32:45.803Z,49.52
2019-06-07T19:37:47.897Z,49.88
2019-06-07T19:42:49.973Z,49.83
2019-06-07T19:47:52.385Z,50.23
2019-06-07T19:52:55.242Z,50.39
2019-06-07T19:57:57.589Z,50.59
2019-06-07T20:02:59.984Z,50.77
2019-06-07T20:08:02.816Z,50.94
2019-06-07T20:13:05.310Z,51.05
2019-06-07T20:18:07.763Z,50.96
2019-06-07T20:23:10.061Z,51.31
2019-06-07T20:28:12.182Z,51.45
2019-06-07T20:33:14.262Z,51.67
2019-06-07T20:38:16.278Z,51.98
2019-06-07T20:43:20.671Z,52.19
2019-06-07T20:48:22.735Z,52.46
2019-06-07T20:53:24.976Z,52.79
2019-06-07T20:58:27.022Z,53.05
2019-06-07T21:03:29.085Z,53.37
2019-06-07T21:08:31.153Z,53.63
2019-06-07T21:13:33.186Z,53.80
2019-06-07T21:18:35.250Z,53.94
2019-06-07T21:23:37.414Z,54.31
2019-06-07T21:28:39.934Z,54.46
2019-06-07T21:33:42.959Z,54.57
2019-06-07T21:38:44.995Z,54.51
2019-06-07T21:43:47.007Z,54.83
2019-06-07T21:48:49.043Z,54.97
2019-06-07T21:53:51.101Z,55.13
2019-06-07T21:58:53.330Z,55.15
2019-06-07T22:03:55.373Z,55.36
2019-06-07T22:08:57.423Z,55.52
2019-06-07T22:13:59.560Z,55.60
2019-06-07T22:19:01.647Z,55.73
2019-06-07T22:24:04.794Z,55.69
2019-06-07T22:29:08.157Z,55.58
2019-06-07T22:34:10.712Z,55.42
2019-06-07T22:39:13.942Z,55.82
2019-06-07T22:44:16.114Z,55.80
2019-06-07T22:49:19.517Z,55.53
2019-06-07T22:54:21.969Z,55.47
2019-06-07T22:59:24.056Z,55.25
2019-06-07T23:04:26.095Z,54.89
2019-06-07T23:09:28.126Z,55.21
2019-06-07T23:14:30.147Z,55.45
2019-06-07T23:19:32.191Z,55.46
2019-06-07T23:24:34.112Z,55.24
2019-06-07T23:29:36.182Z,55.09
2019-06-07T23:34:38.237Z,55.23
2019-06-07T23:39:40.255Z,55.21
2019-06-07T23:44:42.508Z,54.94
2019-06-07T23:49:44.583Z,54.24
2019-06-07T23:54:46.628Z,53.53
2019-06-07T23:59:48.661Z,53.29
